createdAt,value
2022-12-13T00:00:56.277Z,100281.21
2022-12-13T00:02:00.630Z,100279.43
2022-12-13T00:03:02.294Z,100282.34
2022-12-13T00:04:05.518Z,100278.91
2022-12-13T00:05:07.566Z,100282.43
2022-12-13T00:06:09.816Z,100276.40
2022-12-13T00:07:11.282Z,100278.11
2022-12-13T00:08:13.661Z,100269.89
2022-12-13T00:09:16.192Z,100275.34
2022-12-13T00:10:17.735Z,100278.28
2022-12-13T00:11:19.993Z,100276.86
2022-12-13T00:12:21.510Z,100273.31
2022-12-13T00:13:23.180Z,100283.82
2022-12-13T00:14:24.896Z,100277.80
2022-12-13T00:15:26.351Z,100274.05
2022-12-13T00:16:28.240Z,100268.40
2022-12-13T00:17:30.762Z,100279.80
2022-12-13T00:18:32.312Z,100269.09
2022-12-13T00:19:34.138Z,100276.27
2022-12-13T00:20:38.754Z,100272.69
2022-12-13T00:21:40.268Z,100279.77
2022-12-13T00:22:41.711Z,100274.33
2022-12-13T00:23:43.444Z,100276.80
2022-12-13T00:24:46.270Z,100273.08
2022-12-13T00:25:47.786Z,100271.20
2022-12-13T00:26:49.292Z,100270.86
2022-12-13T00:27:51.177Z,100270.17
2022-12-13T00:28:53.555Z,100272.14
2022-12-13T00:29:55.223Z,100272.14
2022-12-13T00:31:04.487Z,100266.35
2022-12-13T00:32:15.232Z,100272.73
2022-12-13T00:33:16.879Z,100273.62
2022-12-13T00:34:19.311Z,100276.61
2022-12-13T00:35:20.979Z,100274.08
2022-12-13T00:36:27.003Z,100271.64
2022-12-13T00:37:28.424Z,100276.12
2022-12-13T00:38:29.876Z,100270.68
2022-12-13T00:39:31.366Z,100269.66
2022-12-13T00:40:32.969Z,100271.17
2022-12-13T00:41:35.380Z,100272.09
2022-12-13T00:42:36.925Z,100271.23
2022-12-13T00:43:38.385Z,100273.13
2022-12-13T00:44:40.102Z,100269.63
2022-12-13T00:45:41.925Z,100267.94
2022-12-13T00:46:43.572Z,100267.33
2022-12-13T00:47:45.531Z,100269.56
2022-12-13T00:48:51.017Z,100269.55
2022-12-13T00:49:52.620Z,100272.23
2022-12-13T00:50:54.152Z,100273.54
2022-12-13T00:51:56.239Z,100279.58
2022-12-13T00:53:00.893Z,100273.07
2022-12-13T00:54:02.701Z,100279.98
2022-12-13T00:55:04.536Z,100277.87
2022-12-13T00:56:13.631Z,100281.28
2022-12-13T00:57:15.143Z,100278.18
2022-12-13T00:58:16.755Z,100274.00
2022-12-13T00:59:18.285Z,100277.55
2022-12-13T01:00:20.820Z,100277.30
2022-12-13T01:01:23.882Z,100271.48
2022-12-13T01:02:25.414Z,100277.54
2022-12-13T01:03:27.157Z,100278.70
2022-12-13T01:04:28.743Z,100277.43
2022-12-13T01:06:12.622Z,100272.89
2022-12-13T01:06:53.212Z,100271.86
2022-12-13T01:07:54.835Z,100275.91
2022-12-13T01:08:56.459Z,100273.84
2022-12-13T01:09:58.336Z,100268.60
2022-12-13T01:10:59.857Z,100272.04
2022-12-13T01:12:04.783Z,100267.10
2022-12-13T01:13:06.290Z,100267.13
2022-12-13T01:14:07.867Z,100262.73
2022-12-13T01:15:09.542Z,100260.63
2022-12-13T01:16:11.912Z,100267.50
2022-12-13T01:17:13.520Z,100268.36
2022-12-13T01:18:18.037Z,100267.16
2022-12-13T01:19:19.694Z,100262.35
2022-12-13T01:20:21.168Z,100265.41
2022-12-13T01:21:22.726Z,100262.07
2022-12-13T01:22:24.685Z,100262.88
2022-12-13T01:23:27.056Z,100262.80
2022-12-13T01:24:29.528Z,100258.40
2022-12-13T01:25:32.584Z,100255.45
2022-12-13T01:26:34.119Z,100258.15
2022-12-13T01:27:35.874Z,100249.95
2022-12-13T01:28:37.447Z,100254.70
2022-12-13T01:29:38.961Z,100254.55
2022-12-13T01:30:40.553Z,100256.58
2022-12-13T01:31:42.235Z,100256.77
2022-12-13T01:32:43.808Z,100252.23
2022-12-13T01:33:45.420Z,100255.92
2022-12-13T01:34:47.007Z,100260.58
2022-12-13T01:35:48.546Z,100263.20
2022-12-13T01:36:50.097Z,100265.20
2022-12-13T01:37:51.761Z,100265.56
2022-12-13T01:39:01.473Z,100268.73
2022-12-13T01:40:16.647Z,100267.50
2022-12-13T01:41:20.243Z,100269.83
2022-12-13T01:42:29.485Z,100265.45
2022-12-13T01:43:30.998Z,100272.80
2022-12-13T01:44:51.542Z,100268.42
2022-12-13T01:45:53.239Z,100266.57
2022-12-13T01:46:54.744Z,100258.48
2022-12-13T01:48:01.906Z,100264.57
2022-12-13T01:49:03.475Z,100259.36
2022-12-13T01:50:16.422Z,100262.10
2022-12-13T01:51:20.706Z,100267.67
2022-12-13T01:52:22.454Z,100264.84
2022-12-13T01:53:26.384Z,100266.29
2022-12-13T01:54:34.405Z,100274.31
2022-12-13T01:55:41.276Z,100265.54
2022-12-13T01:56:46.834Z,100269.49
2022-12-13T01:57:49.827Z,100267.36
2022-12-13T01:58:52.670Z,100270.95
2022-12-13T01:59:54.946Z,100266.89
2022-12-13T02:00:58.425Z,100272.09
2022-12-13T02:02:01.159Z,100265.33
2022-12-13T02:03:03.400Z,100272.46
2022-12-13T02:04:05.523Z,100267.90
2022-12-13T02:05:13.642Z,100267.61
2022-12-13T02:06:17.412Z,100267.68
2022-12-13T02:07:23.697Z,100271.87
2022-12-13T02:08:25.752Z,100268.48
2022-12-13T02:09:27.658Z,100271.16
2022-12-13T02:10:30.456Z,100271.77
2022-12-13T02:11:32.265Z,100283.66
2022-12-13T02:12:34.997Z,100281.00
2022-12-13T02:13:36.956Z,100282.68
2022-12-13T02:14:40.069Z,100285.02
2022-12-13T02:15:51.037Z,100280.58
2022-12-13T02:16:58.402Z,100285.95
2022-12-13T02:18:19.254Z,100283.00
2022-12-13T02:19:20.674Z,100284.77
2022-12-13T02:20:51.398Z,100290.52
2022-12-13T02:21:55.941Z,100287.38
2022-12-13T02:23:06.471Z,100291.52
2022-12-13T02:24:10.960Z,100279.66
2022-12-13T02:25:18.520Z,100280.02
2022-12-13T02:26:25.578Z,100292.33
2022-12-13T02:27:42.538Z,100280.74
2022-12-13T02:28:55.649Z,100285.06
2022-12-13T02:30:16.477Z,100283.79
2022-12-13T02:33:10.728Z,100283.16
2022-12-13T02:34:25.309Z,100279.83
2022-12-13T02:35:41.364Z,100289.86
2022-12-13T02:36:48.819Z,100289.50
2022-12-13T02:37:58.142Z,100288.77
2022-12-13T02:39:12.241Z,100289.36
2022-12-13T02:40:18.069Z,100291.61
2022-12-13T02:41:27.593Z,100287.23
2022-12-13T02:42:34.169Z,100286.67
2022-12-13T02:43:45.698Z,100288.74
2022-12-13T02:44:50.977Z,100294.18
2022-12-13T02:45:55.025Z,100291.27
2022-12-13T02:47:02.249Z,100292.98
2022-12-13T02:48:05.199Z,100299.70
2022-12-13T02:49:08.518Z,100292.11
2022-12-13T02:50:12.116Z,100293.20
2022-12-13T02:51:14.849Z,100298.20
2022-12-13T02:52:22.095Z,100295.13
2022-12-13T02:53:25.034Z,100294.91
2022-12-13T02:54:26.769Z,100299.27
2022-12-13T02:55:28.546Z,100297.80
2022-12-13T02:56:31.178Z,100300.73
2022-12-13T02:57:34.136Z,100299.64
2022-12-13T02:58:38.926Z,100298.31
2022-12-13T02:59:40.356Z,100301.23
2022-12-13T03:01:02.457Z,100302.21
2022-12-13T03:02:30.751Z,100305.97
2022-12-13T03:04:01.024Z,100299.91
2022-12-13T03:05:46.455Z,100298.23
2022-12-13T03:07:06.360Z,100303.84
2022-12-13T03:08:10.813Z,100305.50
2022-12-13T03:09:32.293Z,100305.24
2022-12-13T03:10:42.166Z,100304.81
2022-12-13T03:12:08.460Z,100299.84
2022-12-13T03:13:33.120Z,100306.85
2022-12-13T03:14:36.732Z,100301.48
2022-12-13T03:15:41.573Z,100298.48
2022-12-13T03:16:43.648Z,100300.44
2022-12-13T03:17:51.352Z,100294.91
2022-12-13T03:18:54.524Z,100306.56
2022-12-13T03:19:56.747Z,100298.10
2022-12-13T03:20:59.376Z,100297.89
2022-12-13T03:22:04.542Z,100295.71
2022-12-13T03:23:05.996Z,100299.67
2022-12-13T03:24:07.987Z,100300.00
2022-12-13T03:25:09.439Z,100294.67
2022-12-13T03:26:12.849Z,100296.85
2022-12-13T03:27:14.340Z,100293.48
2022-12-13T03:28:15.869Z,100297.13
2022-12-13T03:29:24.151Z,100299.61
2022-12-13T03:30:26.462Z,100299.24
2022-12-13T03:31:28.330Z,100300.80
2022-12-13T03:32:29.890Z,100296.94
2022-12-13T03:33:31.581Z,100291.19
2022-12-13T03:34:44.608Z,100296.06
2022-12-13T03:35:47.222Z,100296.13
2022-12-13T03:36:48.909Z,100294.52
2022-12-13T03:37:50.550Z,100292.11
2022-12-13T03:38:52.902Z,100292.11
2022-12-13T03:39:54.610Z,100282.48
2022-12-13T03:41:01.350Z,100289.21
2022-12-13T03:42:03.151Z,100274.44
2022-12-13T03:43:04.975Z,100273.23
2022-12-13T03:44:07.133Z,100269.82
2022-12-13T03:45:08.965Z,100269.58
2022-12-13T03:46:10.555Z,100265.05
2022-12-13T03:47:11.998Z,100268.96
2022-12-13T03:48:13.433Z,100272.44
2022-12-13T03:49:24.642Z,100269.70
2022-12-13T03:50:27.483Z,100271.90
2022-12-13T03:51:29.194Z,100270.94
2022-12-13T03:52:30.756Z,100267.38
2022-12-13T03:53:34.619Z,100257.81
2022-12-13T03:54:36.704Z,100265.89
2022-12-13T03:55:38.217Z,100262.85
2022-12-13T03:56:39.745Z,100264.67
2022-12-13T03:57:41.263Z,100262.77
2022-12-13T03:58:42.778Z,100268.41
2022-12-13T03:59:44.203Z,100270.58
2022-12-13T04:00:46.406Z,100274.95
2022-12-13T04:01:47.969Z,100267.30
2022-12-13T04:02:49.583Z,100273.38
2022-12-13T04:03:51.739Z,100276.21
2022-12-13T04:04:53.231Z,100277.75
2022-12-13T04:05:54.711Z,100275.51
2022-12-13T04:06:56.214Z,100275.29
2022-12-13T04:08:00.759Z,100274.52
2022-12-13T04:09:02.745Z,100269.37
2022-12-13T04:10:04.486Z,100277.17
2022-12-13T04:11:44.893Z,100269.13
2022-12-13T04:13:05.250Z,100272.13
2022-12-13T04:14:07.310Z,100273.41
2022-12-13T04:15:08.871Z,100273.15
2022-12-13T04:16:10.350Z,100274.66
2022-12-13T04:17:11.902Z,100282.37
2022-12-13T04:18:13.996Z,100285.44
2022-12-13T04:19:15.463Z,100278.14
2022-12-13T04:20:24.984Z,100283.66
2022-12-13T04:21:26.405Z,100278.95
2022-12-13T04:22:27.931Z,100273.91
2022-12-13T04:23:29.343Z,100276.43
2022-12-13T04:24:32.109Z,100279.93
2022-12-13T04:25:33.940Z,100281.23
2022-12-13T04:26:35.371Z,100282.13
2022-12-13T04:27:37.414Z,100280.35
2022-12-13T04:28:38.905Z,100283.34
2022-12-13T04:29:40.395Z,100281.96
2022-12-13T04:30:41.889Z,100283.58
2022-12-13T04:31:43.370Z,100284.27
2022-12-13T04:32:44.899Z,100285.11
2022-12-13T04:33:46.335Z,100289.11
2022-12-13T04:34:47.934Z,100288.70
2022-12-13T04:35:49.770Z,100291.80
2022-12-13T04:36:51.198Z,100288.59
2022-12-13T04:37:52.792Z,100287.66
2022-12-13T04:38:54.620Z,100289.30
2022-12-13T04:40:00.699Z,100287.66
2022-12-13T04:41:06.735Z,100287.58
2022-12-13T04:42:08.973Z,100293.52
2022-12-13T04:43:10.829Z,100295.60
2022-12-13T04:44:28.957Z,100291.14
2022-12-13T04:45:31.610Z,100290.58
2022-12-13T04:46:33.597Z,100286.54
2022-12-13T04:47:35.030Z,100285.45
2022-12-13T04:48:36.852Z,100285.27
2022-12-13T04:49:38.286Z,100282.80
2022-12-13T04:50:39.757Z,100287.62
2022-12-13T04:51:41.155Z,100290.09
2022-12-13T04:52:49.250Z,100293.75
2022-12-13T04:53:50.813Z,100305.92
2022-12-13T04:54:55.281Z,100295.40
2022-12-13T04:55:58.061Z,100296.54
2022-12-13T04:56:59.502Z,100290.63
2022-12-13T04:58:03.201Z,100288.39
2022-12-13T04:59:04.784Z,100287.60
2022-12-13T05:00:08.152Z,100290.80
2022-12-13T05:01:11.167Z,100290.63
2022-12-13T05:02:12.933Z,100293.38
2022-12-13T05:03:27.249Z,100291.88
2022-12-13T05:04:32.676Z,100289.67
2022-12-13T05:05:37.590Z,100282.46
2022-12-13T05:06:39.018Z,100282.30
2022-12-13T05:07:42.186Z,100285.65
2022-12-13T05:08:44.465Z,100276.46
2022-12-13T05:09:46.000Z,100279.99
2022-12-13T05:10:47.508Z,100287.67
2022-12-13T05:11:49.026Z,100288.95
2022-12-13T05:12:50.522Z,100292.27
2022-12-13T05:13:51.914Z,100291.71
2022-12-13T05:14:53.794Z,100297.17
2022-12-13T05:15:59.543Z,100291.64
2022-12-13T05:17:01.167Z,100298.17
2022-12-13T05:18:10.641Z,100292.93
2022-12-13T05:19:12.594Z,100295.56
2022-12-13T05:20:14.263Z,100292.77
2022-12-13T05:21:15.715Z,100288.36
2022-12-13T05:22:20.316Z,100284.99
2022-12-13T05:23:23.649Z,100289.42
2022-12-13T05:24:25.262Z,100283.91
2022-12-13T05:25:27.088Z,100292.00
2022-12-13T05:26:28.673Z,100300.10
2022-12-13T05:27:30.632Z,100301.85
2022-12-13T05:28:32.344Z,100307.83
2022-12-13T05:29:33.906Z,100298.02
2022-12-13T05:30:42.299Z,100300.86
2022-12-13T05:31:44.146Z,100298.00
2022-12-13T05:32:45.889Z,100299.54
2022-12-13T05:33:47.392Z,100307.67
2022-12-13T05:34:49.457Z,100299.81
2022-12-13T05:35:54.954Z,100302.60
2022-12-13T05:36:59.372Z,100299.67
2022-12-13T05:38:00.789Z,100294.27
2022-12-13T05:39:02.410Z,100304.86
2022-12-13T05:40:04.742Z,100301.91
2022-12-13T05:41:06.484Z,100308.10
2022-12-13T05:42:08.889Z,100312.80
2022-12-13T05:43:22.099Z,100315.52
2022-12-13T05:44:23.945Z,100315.59
2022-12-13T05:45:25.572Z,100312.14
2022-12-13T05:46:27.189Z,100312.70
2022-12-13T05:47:28.664Z,100309.17
2022-12-13T05:48:30.163Z,100315.33
2022-12-13T05:49:31.784Z,100317.54
2022-12-13T05:50:33.217Z,100312.38
2022-12-13T05:51:34.801Z,100319.94
2022-12-13T05:52:36.303Z,100317.23
2022-12-13T05:53:41.121Z,100318.32
2022-12-13T05:54:42.934Z,100323.55
2022-12-13T05:55:44.527Z,100325.23
2022-12-13T05:56:46.140Z,100334.55
2022-12-13T05:57:50.402Z,100332.08
2022-12-13T05:58:53.763Z,100334.13
2022-12-13T05:59:56.625Z,100339.19
2022-12-13T06:01:08.213Z,100336.17
2022-12-13T06:02:09.974Z,100341.90
2022-12-13T06:03:11.568Z,100341.23
2022-12-13T06:04:22.750Z,100341.02
2022-12-13T06:05:24.873Z,100336.22
2022-12-13T06:06:26.293Z,100338.83
2022-12-13T06:07:28.120Z,100337.25
2022-12-13T06:08:30.205Z,100338.36
2022-12-13T06:09:32.299Z,100338.49
2022-12-13T06:10:41.478Z,100338.52
2022-12-13T06:11:43.312Z,100344.11
2022-12-13T06:12:45.270Z,100338.52
2022-12-13T06:13:49.582Z,100346.42
2022-12-13T06:14:51.030Z,100349.88
2022-12-13T06:16:01.062Z,100347.94
2022-12-13T06:17:03.823Z,100346.36
2022-12-13T06:18:05.523Z,100353.14
2022-12-13T06:19:07.667Z,100354.42
2022-12-13T06:20:23.307Z,100358.94
2022-12-13T06:21:26.306Z,100360.68
2022-12-13T06:22:27.842Z,100357.85
2022-12-13T06:23:30.195Z,100358.73
2022-12-13T06:24:31.745Z,100366.55
2022-12-13T06:25:33.241Z,100360.48
2022-12-13T06:26:34.923Z,100358.48
2022-12-13T06:27:36.387Z,100359.85
2022-12-13T06:28:38.028Z,100363.74
2022-12-13T06:29:39.685Z,100360.61
2022-12-13T06:30:42.719Z,100359.40
2022-12-13T06:31:44.428Z,100361.98
2022-12-13T06:32:49.666Z,100365.27
2022-12-13T06:33:51.334Z,100367.52
2022-12-13T06:34:53.058Z,100364.86
2022-12-13T06:35:58.515Z,100362.39
2022-12-13T06:37:00.890Z,100363.30
2022-12-13T06:38:02.689Z,100363.80
2022-12-13T06:39:15.057Z,100359.83
2022-12-13T06:40:21.484Z,100361.60
2022-12-13T06:41:28.955Z,100365.77
2022-12-13T06:42:33.355Z,100366.65
2022-12-13T06:43:35.246Z,100371.73
2022-12-13T06:44:37.717Z,100373.27
2022-12-13T06:45:40.117Z,100379.13
2022-12-13T06:46:42.259Z,100377.68
2022-12-13T06:47:43.855Z,100378.02
2022-12-13T06:48:45.346Z,100377.77
2022-12-13T06:49:47.130Z,100376.17
2022-12-13T06:50:48.712Z,100373.52
2022-12-13T06:51:50.224Z,100373.71
2022-12-13T06:52:51.592Z,100377.20
2022-12-13T06:53:53.018Z,100381.52
2022-12-13T06:54:59.769Z,100377.65
2022-12-13T06:56:05.626Z,100383.45
2022-12-13T06:57:07.316Z,100392.80
2022-12-13T06:58:08.762Z,100383.45
2022-12-13T06:59:10.177Z,100386.58
2022-12-13T07:00:12.002Z,100391.90
2022-12-13T07:01:24.158Z,100391.17
2022-12-13T07:02:26.604Z,100390.02
2022-12-13T07:03:31.525Z,100388.76
2022-12-13T07:04:33.224Z,100392.55
2022-12-13T07:05:36.770Z,100389.73
2022-12-13T07:06:44.722Z,100398.37
2022-12-13T07:07:46.090Z,100401.33
2022-12-13T07:08:49.043Z,100404.30
2022-12-13T07:09:50.574Z,100404.63
2022-12-13T07:10:54.464Z,100405.63
2022-12-13T07:11:55.929Z,100403.16
2022-12-13T07:12:57.610Z,100408.04
2022-12-13T07:13:59.718Z,100410.73
2022-12-13T07:15:01.189Z,100409.65
2022-12-13T07:16:02.962Z,100414.39
2022-12-13T07:17:04.549Z,100412.59
2022-12-13T07:18:06.237Z,100410.40
2022-12-13T07:19:23.142Z,100422.13
2022-12-13T07:20:25.796Z,100422.96
2022-12-13T07:21:28.285Z,100423.62
2022-12-13T07:22:29.690Z,100425.89
2022-12-13T07:23:37.606Z,100427.14
2022-12-13T07:24:39.227Z,100428.89
2022-12-13T07:25:41.261Z,100423.52
2022-12-13T07:26:42.749Z,100432.89
2022-12-13T07:27:44.267Z,100430.96
2022-12-13T07:28:50.087Z,100430.73
2022-12-13T07:29:54.501Z,100435.74
2022-12-13T07:30:56.012Z,100430.25
2022-12-13T07:32:01.048Z,100435.96
2022-12-13T07:33:04.326Z,100430.31
2022-12-13T07:34:05.879Z,100433.00
2022-12-13T07:35:07.703Z,100431.25
2022-12-13T07:36:12.132Z,100430.83
2022-12-13T07:37:30.245Z,100435.53
2022-12-13T07:38:33.067Z,100436.02
2022-12-13T07:39:34.521Z,100432.77
2022-12-13T07:40:36.623Z,100435.92
2022-12-13T07:41:38.289Z,100438.30
2022-12-13T07:42:40.879Z,100442.08
2022-12-13T07:43:42.316Z,100441.67
2022-12-13T07:44:43.907Z,100443.27
2022-12-13T07:45:45.971Z,100441.05
2022-12-13T07:46:47.567Z,100450.62
2022-12-13T07:47:49.213Z,100444.80
2022-12-13T07:48:50.648Z,100448.13
2022-12-13T07:49:52.058Z,100447.88
2022-12-13T07:50:54.928Z,100445.05
2022-12-13T07:51:56.537Z,100448.45
2022-12-13T07:52:58.379Z,100456.55
2022-12-13T07:54:00.088Z,100455.33
2022-12-13T07:55:01.672Z,100457.92
2022-12-13T07:56:04.204Z,100453.93
2022-12-13T07:57:05.687Z,100456.73
2022-12-13T07:58:09.115Z,100454.03
2022-12-13T07:59:10.654Z,100454.65
2022-12-13T08:00:12.545Z,100458.84
2022-12-13T08:01:17.841Z,100452.98
2022-12-13T08:02:19.438Z,100452.73
2022-12-13T08:03:25.089Z,100458.69
2022-12-13T08:04:27.422Z,100460.55
2022-12-13T08:05:29.013Z,100460.16
2022-12-13T08:06:40.021Z,100458.42
2022-12-13T08:07:41.431Z,100458.05
2022-12-13T08:08:43.387Z,100468.73
2022-12-13T08:09:51.035Z,100466.02
2022-12-13T08:10:54.419Z,100459.47
2022-12-13T08:12:04.605Z,100469.30
2022-12-13T08:13:06.589Z,100463.77
2022-12-13T08:14:08.232Z,100462.98
2022-12-13T08:15:13.983Z,100470.99
2022-12-13T08:16:27.069Z,100468.77
2022-12-13T08:17:30.495Z,100463.48
2022-12-13T08:18:33.127Z,100468.32
2022-12-13T08:19:34.751Z,100465.95
2022-12-13T08:20:36.968Z,100472.83
2022-12-13T08:21:56.637Z,100470.41
2022-12-13T08:23:02.163Z,100471.05
2022-12-13T08:24:04.868Z,100475.20
2022-12-13T08:25:07.136Z,100470.34
2022-12-13T08:26:09.046Z,100476.91
2022-12-13T08:27:10.742Z,100480.58
2022-12-13T08:28:12.330Z,100478.77
2022-12-13T08:29:22.886Z,100486.92
2022-12-13T08:30:35.262Z,100486.73
2022-12-13T08:31:38.076Z,100488.27
2022-12-13T08:32:39.918Z,100491.83
2022-12-13T08:33:43.074Z,100491.63
2022-12-13T08:34:45.758Z,100493.54
2022-12-13T08:35:47.459Z,100499.96
2022-12-13T08:36:48.927Z,100488.52
2022-12-13T08:37:50.421Z,100487.58
2022-12-13T08:38:54.517Z,100495.85
2022-12-13T08:39:55.999Z,100489.39
2022-12-13T08:40:58.459Z,100491.11
2022-12-13T08:42:00.074Z,100496.13
2022-12-13T08:43:17.230Z,100496.73
2022-12-13T08:44:26.259Z,100492.28
2022-12-13T08:45:27.932Z,100500.33
2022-12-13T08:46:29.569Z,100494.48
2022-12-13T08:47:31.061Z,100495.99
2022-12-13T08:48:32.913Z,100498.91
2022-12-13T08:49:34.562Z,100499.37
2022-12-13T08:50:36.047Z,100500.67
2022-12-13T08:51:37.653Z,100499.91
2022-12-13T08:52:42.056Z,100502.64
2022-12-13T08:53:44.291Z,100505.21
2022-12-13T08:54:45.840Z,100505.91
2022-12-13T08:55:47.276Z,100506.95
2022-12-13T08:56:48.798Z,100513.05
2022-12-13T08:57:50.276Z,100506.05
2022-12-13T08:58:51.745Z,100517.25
2022-12-13T08:59:53.923Z,100511.39
2022-12-13T09:00:55.764Z,100515.72
2022-12-13T09:02:01.620Z,100515.63
2022-12-13T09:03:10.128Z,100513.35
2022-12-13T09:04:12.181Z,100513.85
2022-12-13T09:05:13.730Z,100521.70
2022-12-13T09:06:35.233Z,100514.22
2022-12-13T09:07:40.255Z,100519.41
2022-12-13T09:08:42.599Z,100522.46
2022-12-13T09:09:55.110Z,100529.06
2022-12-13T09:10:59.224Z,100525.14
2022-12-13T09:12:01.026Z,100522.34
2022-12-13T09:13:12.473Z,100526.25
2022-12-13T09:14:15.073Z,100527.30
2022-12-13T09:15:25.544Z,100527.27
2022-12-13T09:16:36.320Z,100532.38
2022-12-13T09:17:38.308Z,100526.94
2022-12-13T09:18:40.563Z,100531.63
2022-12-13T09:19:42.031Z,100540.98
2022-12-13T09:20:43.752Z,100530.66
2022-12-13T09:21:45.490Z,100530.38
2022-12-13T09:22:48.823Z,100535.68
2022-12-13T09:23:50.475Z,100536.05
2022-12-13T09:24:51.909Z,100532.84
2022-12-13T09:26:05.211Z,100537.66
2022-12-13T09:27:10.050Z,100540.09
2022-12-13T09:28:11.759Z,100538.54
2022-12-13T09:29:15.624Z,100544.61
2022-12-13T09:30:17.155Z,100543.23
2022-12-13T09:31:19.369Z,100543.79
2022-12-13T09:32:21.910Z,100543.98
2022-12-13T09:33:30.108Z,100540.31
2022-12-13T09:34:32.931Z,100545.73
2022-12-13T09:35:36.944Z,100543.06
2022-12-13T09:36:38.490Z,100540.73
2022-12-13T09:37:45.525Z,100541.84
2022-12-13T09:38:47.800Z,100539.11
2022-12-13T09:39:54.958Z,100545.29
2022-12-13T09:40:59.339Z,100541.22
2022-12-13T09:42:01.958Z,100544.02
2022-12-13T09:43:21.780Z,100541.13
2022-12-13T09:44:32.205Z,100540.24
2022-12-13T09:45:36.967Z,100536.80
2022-12-13T09:46:46.169Z,100540.60
2022-12-13T09:47:48.194Z,100543.01
2022-12-13T09:48:51.693Z,100543.52
2022-12-13T09:49:53.765Z,100543.77
2022-12-13T09:51:15.977Z,100542.52
2022-12-13T09:52:21.624Z,100546.41
2022-12-13T09:53:23.839Z,100546.13
2022-12-13T09:54:25.661Z,100543.80
2022-12-13T09:55:30.292Z,100544.32
2022-12-13T09:56:32.364Z,100542.65
2022-12-13T09:57:34.504Z,100543.55
2022-12-13T09:58:36.689Z,100545.29
2022-12-13T09:59:40.772Z,100543.55
2022-12-13T10:00:42.571Z,100547.77
2022-12-13T10:01:44.952Z,100548.29
2022-12-13T10:02:47.935Z,100551.52
2022-12-13T10:03:51.506Z,100552.64
2022-12-13T10:04:54.156Z,100554.03
2022-12-13T10:06:13.957Z,100554.33
2022-12-13T10:07:24.554Z,100553.16
2022-12-13T10:08:36.040Z,100559.60
2022-12-13T10:09:37.706Z,100562.50
2022-12-13T10:10:39.629Z,100560.14
2022-12-13T10:11:50.646Z,100561.55
2022-12-13T10:13:02.989Z,100569.11
2022-12-13T10:14:20.897Z,100564.08
2022-12-13T10:15:23.639Z,100563.45
2022-12-13T10:16:36.468Z,100567.59
2022-12-13T10:17:40.310Z,100574.46
2022-12-13T10:18:43.045Z,100569.52
2022-12-13T10:19:45.928Z,100566.86
2022-12-13T10:20:49.283Z,100567.21
2022-12-13T10:21:50.930Z,100568.52
2022-12-13T10:23:30.103Z,100567.80
2022-12-13T10:24:30.118Z,100565.84
2022-12-13T10:26:02.703Z,100572.91
2022-12-13T10:27:12.680Z,100570.61
2022-12-13T10:28:15.509Z,100572.05
2022-12-13T10:29:17.048Z,100568.30
2022-12-13T10:30:28.344Z,100571.03
2022-12-13T10:31:38.344Z,100569.85
2022-12-13T10:33:05.995Z,100569.45
2022-12-13T10:34:16.509Z,100572.95
2022-12-13T10:35:20.951Z,100572.83
2022-12-13T10:36:28.164Z,100571.41
2022-12-13T10:37:30.613Z,100567.02
2022-12-13T10:38:35.171Z,100573.15
2022-12-13T10:39:37.921Z,100569.23
2022-12-13T10:40:40.691Z,100566.35
2022-12-13T10:41:42.275Z,100572.70
2022-12-13T10:42:43.791Z,100569.43
2022-12-13T10:43:45.320Z,100570.32
2022-12-13T10:44:47.922Z,100564.65
2022-12-13T10:45:57.478Z,100566.45
2022-12-13T10:47:04.204Z,100567.96
2022-12-13T10:48:16.083Z,100570.48
2022-12-13T10:49:20.288Z,100572.89
2022-12-13T10:50:31.371Z,100572.48
2022-12-13T10:51:37.610Z,100567.16
2022-12-13T10:52:43.652Z,100571.86
2022-12-13T10:53:48.153Z,100566.14
2022-12-13T10:54:50.260Z,100566.36
2022-12-13T10:55:54.562Z,100567.53
2022-12-13T10:56:59.587Z,100561.19
2022-12-13T10:58:08.796Z,100564.70
2022-12-13T10:59:24.884Z,100561.30
2022-12-13T11:00:38.181Z,100558.17
2022-12-13T11:01:39.681Z,100563.59
2022-12-13T11:02:52.649Z,100564.06
2022-12-13T11:04:02.368Z,100563.64
2022-12-13T11:05:23.056Z,100568.27
2022-12-13T11:06:25.655Z,100567.08
2022-12-13T11:07:28.585Z,100568.50
2022-12-13T11:08:30.192Z,100571.31
2022-12-13T11:09:38.752Z,100565.00
2022-12-13T11:10:41.437Z,100567.95
2022-12-13T11:11:44.059Z,100568.38
2022-12-13T11:12:45.723Z,100570.98
2022-12-13T11:13:54.335Z,100567.11
2022-12-13T11:15:00.102Z,100571.27
2022-12-13T11:16:02.497Z,100574.39
2022-12-13T11:17:08.444Z,100572.50
2022-12-13T11:18:19.798Z,100570.62
2022-12-13T11:19:25.459Z,100576.06
2022-12-13T11:20:31.033Z,100571.37
2022-12-13T11:21:36.654Z,100571.60
2022-12-13T11:22:39.317Z,100579.48
2022-12-13T11:23:43.753Z,100576.92
2022-12-13T11:24:50.846Z,100574.52
2022-12-13T11:26:00.042Z,100572.27
2022-12-13T11:27:07.146Z,100578.45
2022-12-13T11:28:27.901Z,100577.15
2022-12-13T11:29:36.981Z,100576.29
2022-12-13T11:30:38.477Z,100578.89
2022-12-13T11:31:49.153Z,100579.27
2022-12-13T11:32:53.544Z,100584.52
2022-12-13T11:34:05.085Z,100583.78
2022-12-13T11:35:25.106Z,100586.98
2022-12-13T11:36:32.801Z,100584.88
2022-12-13T11:37:40.175Z,100588.17
2022-12-13T11:38:44.742Z,100586.56
2022-12-13T11:39:51.598Z,100592.34
2022-12-13T11:40:58.377Z,100589.39
2022-12-13T11:42:18.736Z,100591.11
2022-12-13T11:43:23.910Z,100593.70
2022-12-13T11:44:28.629Z,100594.16
2022-12-13T11:45:42.929Z,100595.45
2022-12-13T11:46:45.610Z,100594.53
2022-12-13T11:47:47.248Z,100593.30
2022-12-13T11:48:58.078Z,100594.09
2022-12-13T11:49:59.936Z,100588.51
2022-12-13T11:51:04.922Z,100592.12
2022-12-13T11:52:39.106Z,100590.33
2022-12-13T11:53:59.041Z,100592.94
2022-12-13T11:55:03.125Z,100594.36
2022-12-13T11:56:24.820Z,100598.09
2022-12-13T11:57:29.057Z,100602.03
2022-12-13T12:00:13.075Z,100605.35
2022-12-13T12:01:20.105Z,100605.79
2022-12-13T12:02:34.040Z,100607.84
2022-12-13T12:03:38.802Z,100609.32
2022-12-13T12:04:43.246Z,100615.33
2022-12-13T12:05:55.756Z,100618.52
2022-12-13T12:07:32.524Z,100616.48
2022-12-13T12:08:37.885Z,100615.79
2022-12-13T12:10:06.053Z,100615.93
2022-12-13T12:11:07.854Z,100619.77
2022-12-13T12:12:16.317Z,100616.45
2022-12-13T12:13:27.762Z,100623.81
2022-12-13T12:14:32.652Z,100620.78
2022-12-13T12:15:41.542Z,100618.80
2022-12-13T12:16:50.279Z,100625.13
2022-12-13T12:17:51.760Z,100629.34
2022-12-13T12:18:54.380Z,100630.08
2022-12-13T12:20:03.373Z,100623.35
2022-12-13T12:21:32.782Z,100628.67
2022-12-13T12:22:52.245Z,100634.63
2022-12-13T12:23:59.370Z,100634.23
2022-12-13T12:25:15.795Z,100631.83